createdAt,value
2023-02-03T00:00:49.731Z,47.97
2023-02-03T00:03:16.510Z,51.33
2023-02-03T00:05:43.447Z,41.63
2023-02-03T00:08:10.485Z,41.80
2023-02-03T00:10:45.025Z,42.70
2023-02-03T00:13:11.904Z,38.90
2023-02-03T00:15:38.486Z,38.40
2023-02-03T00:18:05.155Z,40.90
2023-02-03T00:20:40.849Z,36.27
2023-02-03T00:23:09.186Z,46.90
2023-02-03T00:25:36.275Z,45.23
2023-02-03T00:28:11.991Z,43.97
2023-02-03T00:30:38.643Z,37.13
2023-02-03T00:33:05.271Z,41.83
2023-02-03T00:35:41.759Z,35.23
2023-02-03T00:38:08.497Z,37.93
2023-02-03T00:40:35.265Z,37.33
2023-02-03T00:43:10.593Z,34.33
2023-02-03T00:45:37.289Z,41.47
2023-02-03T00:48:04.914Z,33.30
2023-02-03T00:50:31.506Z,40.47
2023-02-03T00:52:58.608Z,36.53
2023-02-03T00:55:27.629Z,30.20
2023-02-03T00:58:00.265Z,32.77
2023-02-03T01:00:30.500Z,36.00
2023-02-03T01:03:03.427Z,34.13
2023-02-03T01:05:30.411Z,32.37
2023-02-03T01:07:58.602Z,41.10
2023-02-03T01:10:33.835Z,37.40
2023-02-03T01:13:00.484Z,38.43
2023-02-03T01:15:28.204Z,34.20
2023-02-03T01:18:21.124Z,36.03
2023-02-03T01:20:47.697Z,36.03
2023-02-03T01:23:14.355Z,31.50
2023-02-03T01:25:40.975Z,36.93
2023-02-03T01:28:18.926Z,34.90
2023-02-03T01:30:47.693Z,36.43
2023-02-03T01:33:14.484Z,33.77
2023-02-03T01:35:50.083Z,38.07
2023-02-03T01:38:16.735Z,37.57
2023-02-03T01:40:44.637Z,29.03
2023-02-03T01:43:28.080Z,32.70
2023-02-03T01:46:04.505Z,33.73
2023-02-03T01:48:34.896Z,31.73
2023-02-03T01:51:02.759Z,37.30
2023-02-03T01:53:34.907Z,32.30
2023-02-03T01:56:01.778Z,37.17
2023-02-03T01:58:30.709Z,35.83
2023-02-03T02:01:05.851Z,28.63
2023-02-03T02:03:45.465Z,30.50
2023-02-03T02:06:16.998Z,25.37
2023-02-03T02:08:51.655Z,31.10
2023-02-03T02:11:21.338Z,29.87
2023-02-03T02:13:49.368Z,28.70
2023-02-03T02:16:34.180Z,30.57
2023-02-03T02:19:00.779Z,29.67
2023-02-03T02:21:49.062Z,27.70
2023-02-03T02:24:40.045Z,26.30
2023-02-03T02:27:41.596Z,28.43
2023-02-03T02:30:26.669Z,34.00
2023-02-03T02:33:02.455Z,27.17
2023-02-03T02:36:04.872Z,34.50
2023-02-03T02:38:54.934Z,28.07
2023-02-03T02:41:30.697Z,27.20
2023-02-03T02:44:25.723Z,27.80
2023-02-03T02:47:01.598Z,25.23
2023-02-03T02:49:34.335Z,28.53
2023-02-03T02:52:05.852Z,23.50
2023-02-03T02:54:35.068Z,31.27
2023-02-03T02:57:09.615Z,25.80
2023-02-03T02:59:36.282Z,26.80
2023-02-03T03:02:08.110Z,27.93
2023-02-03T03:04:38.383Z,26.27
2023-02-03T03:07:17.227Z,26.17
2023-02-03T03:09:49.802Z,23.80
2023-02-03T03:12:21.765Z,26.27
2023-02-03T03:14:59.290Z,21.50
2023-02-03T03:17:38.090Z,29.60
2023-02-03T03:23:26.735Z,32.97
2023-02-03T03:26:04.893Z,27.63
2023-02-03T03:28:37.444Z,24.23
2023-02-03T03:31:04.418Z,27.83
2023-02-03T03:33:31.198Z,30.00
2023-02-03T03:36:17.634Z,25.50
2023-02-03T03:38:56.090Z,23.90
2023-02-03T03:41:28.983Z,30.37
2023-02-03T03:43:57.394Z,29.93
2023-02-03T03:46:28.988Z,23.17
2023-02-03T03:49:05.273Z,20.83
2023-02-03T03:51:47.805Z,22.97
2023-02-03T03:54:19.423Z,26.13
2023-02-03T03:57:01.269Z,28.23
2023-02-03T03:59:39.301Z,26.00
2023-02-03T04:02:09.169Z,28.20
2023-02-03T04:04:46.508Z,22.63
2023-02-03T04:07:13.837Z,20.73
2023-02-03T04:09:42.858Z,27.60
2023-02-03T04:12:23.873Z,19.90
2023-02-03T04:14:50.588Z,21.47
2023-02-03T04:17:26.190Z,20.50
2023-02-03T04:19:52.804Z,21.63
2023-02-03T04:22:19.460Z,21.80
2023-02-03T04:24:46.059Z,19.43
2023-02-03T04:27:18.728Z,21.90
2023-02-03T04:29:47.580Z,27.67
2023-02-03T04:32:14.185Z,19.13
2023-02-03T04:34:50.995Z,17.10
2023-02-03T04:37:17.647Z,21.37
2023-02-03T04:39:44.483Z,15.33
2023-02-03T04:42:21.650Z,16.90
2023-02-03T04:44:49.421Z,14.67
2023-02-03T04:47:16.821Z,19.40
2023-02-03T04:49:51.020Z,21.00
2023-02-03T04:52:17.670Z,18.33
2023-02-03T04:54:44.319Z,19.83
2023-02-03T04:57:10.949Z,15.70
2023-02-03T04:59:37.754Z,19.57
2023-02-03T05:02:08.492Z,18.80
2023-02-03T05:04:36.401Z,18.20
2023-02-03T05:07:11.914Z,18.90
2023-02-03T05:09:41.688Z,20.00
2023-02-03T05:12:10.853Z,15.30
2023-02-03T05:14:37.503Z,13.93
2023-02-03T05:17:29.150Z,14.60
2023-02-03T05:19:55.781Z,14.50
2023-02-03T05:22:22.369Z,17.07
2023-02-03T05:24:49.040Z,15.47
2023-02-03T05:27:15.580Z,13.67
2023-02-03T05:29:44.559Z,13.53
2023-02-03T05:32:14.960Z,18.03
2023-02-03T05:34:42.476Z,13.43
2023-02-03T05:37:09.137Z,15.97
2023-02-03T05:39:44.790Z,10.03
2023-02-03T05:42:11.451Z,11.37
2023-02-03T05:44:38.063Z,15.23
2023-02-03T05:47:04.990Z,14.37
2023-02-03T05:49:40.302Z,15.43
2023-02-03T05:52:09.955Z,12.67
2023-02-03T05:54:36.582Z,12.80
2023-02-03T05:57:06.201Z,19.00
2023-02-03T05:59:58.397Z,11.83
2023-02-03T06:02:25.063Z,11.20
2023-02-03T06:04:57.600Z,16.33
2023-02-03T06:07:24.314Z,13.07
2023-02-03T06:09:50.964Z,14.37
2023-02-03T06:12:17.544Z,13.03
2023-02-03T06:14:44.173Z,10.70
2023-02-03T06:20:08.857Z,11.43
2023-02-03T06:22:35.809Z,13.77
2023-02-03T06:25:02.654Z,15.10
2023-02-03T06:27:42.878Z,10.70
2023-02-03T06:30:16.115Z,17.97
2023-02-03T06:32:42.807Z,15.40
2023-02-03T06:35:09.513Z,15.23
2023-02-03T06:37:36.291Z,14.77
2023-02-03T06:40:04.425Z,18.50
2023-02-03T06:42:31.583Z,14.73
2023-02-03T06:44:58.305Z,19.50
2023-02-03T06:47:24.991Z,12.90
2023-02-03T06:49:52.368Z,13.53
2023-02-03T06:52:19.204Z,12.50
2023-02-03T06:57:27.473Z,13.37
2023-02-03T06:59:55.087Z,18.47
2023-02-03T07:02:28.008Z,17.90
2023-02-03T07:04:54.742Z,21.77
2023-02-03T07:07:21.369Z,18.10
2023-02-03T07:09:48.006Z,13.60
2023-02-03T07:12:14.718Z,19.83
2023-02-03T07:14:43.903Z,17.77
2023-02-03T07:17:10.553Z,18.00
2023-02-03T07:19:37.243Z,17.97
2023-02-03T07:22:16.129Z,18.77
2023-02-03T07:24:42.736Z,17.80
2023-02-03T07:27:09.479Z,20.93
2023-02-03T07:29:36.076Z,20.57
2023-02-03T07:32:10.634Z,22.20
2023-02-03T07:34:37.250Z,15.60
2023-02-03T07:37:16.969Z,22.93
2023-02-03T07:39:43.628Z,22.17
2023-02-03T07:42:10.306Z,19.40
2023-02-03T07:44:49.245Z,19.90
2023-02-03T07:47:15.861Z,22.13
2023-02-03T07:49:42.982Z,21.33
2023-02-03T07:52:30.191Z,22.17
2023-02-03T07:55:02.592Z,19.07
2023-02-03T07:57:29.238Z,20.10
2023-02-03T07:59:55.886Z,18.90
2023-02-03T08:02:22.503Z,22.90
2023-02-03T08:04:49.384Z,22.93
2023-02-03T08:07:41.538Z,13.10
2023-02-03T08:44:53.016Z,21.70
2023-02-03T08:47:19.604Z,24.40
2023-02-03T08:49:46.410Z,17.90
2023-02-03T08:52:13.626Z,21.73
2023-02-03T08:58:33.759Z,15.37
2023-02-03T09:01:11.163Z,15.30
2023-02-03T09:06:48.184Z,23.37
2023-02-03T09:17:05.792Z,14.60
2023-02-03T09:44:10.221Z,7.27
2023-02-03T09:50:15.207Z,11.67
2023-02-03T09:52:44.189Z,9.23
2023-02-03T09:55:27.393Z,7.73
2023-02-03T09:58:16.340Z,7.17
2023-02-03T10:00:48.429Z,8.63
2023-02-03T10:03:17.958Z,7.90
2023-02-03T10:06:10.915Z,7.73
2023-02-03T10:08:48.861Z,7.97
2023-02-03T10:11:27.748Z,4.70
2023-02-03T10:14:03.549Z,4.13
2023-02-03T10:16:33.300Z,8.30
2023-02-03T10:19:04.250Z,6.70
2023-02-03T10:21:44.332Z,8.30
2023-02-03T10:24:15.613Z,5.23
2023-02-03T10:26:42.388Z,6.43
2023-02-03T10:29:33.507Z,7.17
2023-02-03T10:32:00.841Z,7.80
2023-02-03T10:34:27.628Z,9.93
2023-02-03T10:37:05.725Z,11.03
2023-02-03T10:39:40.254Z,12.13
2023-02-03T10:42:07.599Z,6.20
2023-02-03T10:44:40.853Z,13.13
2023-02-03T10:50:55.895Z,8.57
2023-02-03T10:53:36.227Z,10.87
2023-02-03T10:56:06.146Z,10.23
2023-02-03T10:58:34.438Z,7.70
2023-02-03T11:01:12.574Z,9.50
2023-02-03T11:04:00.565Z,13.93
2023-02-03T11:06:28.344Z,15.67
2023-02-03T11:08:55.241Z,19.23
2023-02-03T11:11:33.890Z,11.93
2023-02-03T11:14:00.423Z,19.10
2023-02-03T11:16:29.341Z,15.00
2023-02-03T11:19:10.261Z,12.07
2023-02-03T11:21:40.091Z,15.40
2023-02-03T11:24:12.016Z,20.63
2023-02-03T11:26:48.041Z,16.97
2023-02-03T11:29:19.042Z,16.23
2023-02-03T11:31:48.841Z,18.37
2023-02-03T11:34:28.183Z,18.60
2023-02-03T11:36:54.863Z,16.23
2023-02-03T11:39:29.765Z,16.93
2023-02-03T11:41:56.965Z,23.77
2023-02-03T11:44:26.409Z,26.43
2023-02-03T11:46:56.881Z,19.43
2023-02-03T11:49:36.436Z,14.93
2023-02-03T11:52:33.030Z,22.03
2023-02-03T11:55:26.937Z,19.97
2023-02-03T11:58:29.125Z,24.93
2023-02-03T12:01:02.470Z,17.43
2023-02-03T12:03:46.244Z,23.30
2023-02-03T12:06:28.427Z,23.00
2023-02-03T12:09:04.097Z,14.00
2023-02-03T12:11:40.432Z,20.43
2023-02-03T12:14:36.783Z,13.83
2023-02-03T12:17:29.269Z,18.00
2023-02-03T12:20:18.997Z,24.30
2023-02-03T12:23:35.563Z,18.43
2023-02-03T12:26:19.581Z,20.17
2023-02-03T12:29:09.876Z,16.90
2023-02-03T12:31:54.925Z,24.13
2023-02-03T12:34:36.149Z,20.07
2023-02-03T12:37:13.193Z,23.63
2023-02-03T12:39:45.061Z,19.03
2023-02-03T12:42:15.193Z,22.73
2023-02-03T12:44:54.412Z,23.47
2023-02-03T12:47:30.150Z,20.93
2023-02-03T12:50:00.633Z,18.70
2023-02-03T12:52:30.163Z,25.73
2023-02-03T12:55:29.913Z,23.97
2023-02-03T12:58:00.951Z,29.17
2023-02-03T13:00:43.300Z,21.10
2023-02-03T13:03:37.265Z,25.73
2023-02-03T13:06:18.768Z,26.13
2023-02-03T13:09:02.973Z,33.73
2023-02-03T13:11:44.201Z,21.40
2023-02-03T13:17:40.048Z,19.47
2023-02-03T13:20:19.443Z,22.53
2023-02-03T13:22:46.523Z,19.60
2023-02-03T13:25:51.544Z,18.70
2023-02-03T13:28:53.378Z,13.73
2023-02-03T13:31:54.859Z,17.73
2023-02-03T13:34:41.783Z,19.30
2023-02-03T13:37:49.753Z,17.57
2023-02-03T13:40:45.878Z,15.87
2023-02-03T13:43:32.237Z,14.03
2023-02-03T13:46:04.972Z,21.60
2023-02-03T13:49:28.443Z,25.73
2023-02-03T13:51:55.252Z,23.10
2023-02-03T13:54:28.928Z,16.30
2023-02-03T13:57:24.551Z,22.17
2023-02-03T14:03:26.556Z,16.27
2023-02-03T14:06:03.664Z,21.17
2023-02-03T14:08:30.389Z,20.23
2023-02-03T14:11:34.351Z,21.03
2023-02-03T14:14:20.805Z,23.47
2023-02-03T14:38:52.173Z,31.23
2023-02-03T14:53:59.325Z,21.77
2023-02-03T14:57:27.724Z,20.37
2023-02-03T15:00:45.623Z,16.67
2023-02-03T15:03:24.976Z,18.03
2023-02-03T15:06:28.577Z,21.17
2023-02-03T15:09:00.960Z,28.87
2023-02-03T15:11:40.060Z,28.37
2023-02-03T15:14:43.366Z,16.60
2023-02-03T15:17:29.467Z,16.77
2023-02-03T15:20:36.156Z,16.10
2023-02-03T15:23:33.328Z,22.10
2023-02-03T15:37:45.273Z,17.20
2023-02-03T15:40:36.218Z,17.77
2023-02-03T15:43:24.183Z,16.87
2023-02-03T15:50:36.831Z,20.87
2023-02-03T15:53:09.247Z,15.43
2023-02-03T15:55:45.938Z,21.83
2023-02-03T15:58:22.712Z,16.63
2023-02-03T16:04:28.674Z,23.73
2023-02-03T16:07:33.605Z,18.20
2023-02-03T16:10:00.416Z,23.10
2023-02-03T16:12:29.527Z,24.27
2023-02-03T16:14:57.558Z,21.93
2023-02-03T16:17:34.007Z,25.53
2023-02-03T16:20:12.975Z,21.23
2023-02-03T16:22:45.093Z,16.17
2023-02-03T16:25:14.427Z,19.70
2023-02-03T16:28:13.544Z,31.27
2023-02-03T16:34:45.575Z,17.03
2023-02-03T16:38:33.105Z,20.60
2023-02-03T16:41:42.923Z,16.90
2023-02-03T16:44:34.507Z,22.67
2023-02-03T16:47:23.076Z,20.80
2023-02-03T16:50:08.117Z,14.90
2023-02-03T16:52:34.925Z,19.50
2023-02-03T16:55:01.665Z,32.60
2023-02-03T17:00:45.742Z,23.33
2023-02-03T17:03:20.658Z,21.30
2023-02-03T17:05:51.135Z,28.40
2023-02-03T17:08:20.047Z,21.40
2023-02-03T17:10:48.084Z,17.63
2023-02-03T17:13:24.567Z,17.50
2023-02-03T17:15:55.474Z,29.90
2023-02-03T17:18:29.590Z,17.27
2023-02-03T17:20:58.855Z,23.93
2023-02-03T17:23:29.851Z,28.20
2023-02-03T17:25:59.277Z,25.53
2023-02-03T17:28:26.465Z,30.60
2023-02-03T17:31:05.344Z,23.30
2023-02-03T17:33:34.000Z,17.87
2023-02-03T17:36:09.281Z,20.83
2023-02-03T17:55:07.840Z,15.57
2023-02-03T17:57:44.742Z,19.30
2023-02-03T18:00:11.876Z,20.43
2023-02-03T18:02:43.144Z,26.57
2023-02-03T18:05:12.358Z,22.00
2023-02-03T18:07:38.956Z,22.50
2023-02-03T18:10:05.812Z,20.33
2023-02-03T18:12:32.445Z,16.03
2023-02-03T18:14:59.123Z,25.50
2023-02-03T18:17:33.659Z,16.57
2023-02-03T18:20:01.415Z,18.97
2023-02-03T18:22:28.191Z,20.80
2023-02-03T18:25:02.925Z,20.23
2023-02-03T18:27:29.601Z,22.13
2023-02-03T18:29:56.275Z,21.43
2023-02-03T18:32:22.932Z,23.07
2023-02-03T18:34:49.724Z,22.20
2023-02-03T18:37:23.964Z,27.37
2023-02-03T18:39:50.604Z,27.27
2023-02-03T18:42:17.227Z,26.17
2023-02-03T18:44:47.069Z,21.80
2023-02-03T18:47:13.739Z,15.33
2023-02-03T18:49:40.911Z,16.43
2023-02-03T18:52:07.750Z,33.10
2023-02-03T18:54:34.405Z,25.00
2023-02-03T18:59:44.149Z,24.27
2023-02-03T19:02:11.168Z,31.07
2023-02-03T19:04:43.946Z,22.57
2023-02-03T19:07:13.511Z,15.43
2023-02-03T19:09:40.917Z,39.27
2023-02-03T19:12:16.170Z,28.30
2023-02-03T19:14:42.898Z,26.33
2023-02-03T19:17:10.317Z,20.27
2023-02-03T19:19:43.089Z,21.33
2023-02-03T19:22:11.820Z,23.47
2023-02-03T19:24:39.382Z,23.20
2023-02-03T19:27:15.874Z,19.50
2023-02-03T19:29:42.491Z,19.20
2023-02-03T19:32:12.437Z,26.87
2023-02-03T19:34:48.096Z,23.40
2023-02-03T19:37:14.862Z,33.03
2023-02-03T19:39:41.760Z,22.60
2023-02-03T19:42:11.384Z,29.70
2023-02-03T19:44:38.153Z,18.60
2023-02-03T19:47:07.288Z,14.93
2023-02-03T19:49:36.765Z,24.70
2023-02-03T19:52:07.243Z,22.53
2023-02-03T19:54:41.462Z,28.53
2023-02-03T19:57:08.122Z,20.60
2023-02-03T19:59:37.146Z,22.10
2023-02-03T20:02:14.142Z,19.40
2023-02-03T20:04:51.520Z,32.87
2023-02-03T20:07:18.807Z,28.83
2023-02-03T20:09:45.734Z,24.37
2023-02-03T20:12:19.364Z,27.10
2023-02-03T20:14:46.018Z,21.50
2023-02-03T20:17:12.729Z,30.20
2023-02-03T20:19:39.362Z,25.83
2023-02-03T20:22:11.947Z,20.63
2023-02-03T20:24:46.128Z,23.33
2023-02-03T20:27:12.820Z,24.53
2023-02-03T20:29:42.029Z,25.90
2023-02-03T20:32:11.963Z,21.93
2023-02-03T20:34:38.700Z,22.80
2023-02-03T20:37:09.218Z,31.67
2023-02-03T20:39:38.866Z,34.20
2023-02-03T20:42:23.969Z,22.10
2023-02-03T20:44:50.650Z,29.83
2023-02-03T20:47:18.906Z,29.43
2023-02-03T20:49:47.789Z,29.77
2023-02-03T20:52:21.734Z,28.20
2023-02-03T20:54:48.355Z,21.83
2023-02-03T20:57:17.534Z,24.70
2023-02-03T20:59:44.911Z,23.50
2023-02-03T21:02:30.761Z,30.03
2023-02-03T21:04:57.739Z,29.57
2023-02-03T21:07:27.397Z,19.40
2023-02-03T21:09:54.840Z,27.50
2023-02-03T21:12:27.492Z,31.30
2023-02-03T21:15:00.405Z,17.13
2023-02-03T21:17:27.426Z,22.00
2023-02-03T21:19:58.733Z,30.20
2023-02-03T21:22:27.862Z,20.40
2023-02-03T21:24:58.996Z,24.10
2023-02-03T21:27:29.949Z,28.20
2023-02-03T21:30:01.642Z,26.20
2023-02-03T21:32:38.338Z,22.27
2023-02-03T21:35:19.154Z,33.53
2023-02-03T21:37:45.832Z,29.00
2023-02-03T21:40:17.490Z,26.80
2023-02-03T21:42:45.931Z,35.23
2023-02-03T21:45:19.820Z,26.60
2023-02-03T21:48:01.955Z,31.77
2023-02-03T21:50:35.685Z,24.07
2023-02-03T21:53:05.237Z,30.10
2023-02-03T21:55:35.598Z,34.10
2023-02-03T21:58:17.042Z,35.63
2023-02-03T22:00:48.038Z,24.07
2023-02-03T22:03:25.964Z,25.50
2023-02-03T22:05:58.802Z,24.93
2023-02-03T22:08:33.272Z,33.50
2023-02-03T22:10:59.892Z,31.93
2023-02-03T22:13:26.544Z,29.80
2023-02-03T22:15:53.126Z,29.90
2023-02-03T22:18:19.856Z,16.23
2023-02-03T22:20:49.545Z,26.47
2023-02-03T22:23:16.580Z,37.57
2023-02-03T22:25:43.332Z,25.40
2023-02-03T22:28:10.137Z,32.10
2023-02-03T22:30:36.954Z,25.50
2023-02-03T22:33:06.463Z,32.90
2023-02-03T22:35:33.150Z,33.30
2023-02-03T22:38:04.524Z,23.77
2023-02-03T22:43:11.872Z,28.50
2023-02-03T22:45:38.657Z,23.10
2023-02-03T22:48:11.780Z,21.87
2023-02-03T22:50:38.741Z,30.27
2023-02-03T22:53:06.006Z,30.53
2023-02-03T22:55:39.872Z,28.17
2023-02-03T22:58:07.088Z,30.23
2023-02-03T23:00:34.182Z,26.53
2023-02-03T23:03:27.836Z,32.93
2023-02-03T23:05:55.282Z,31.67
2023-02-03T23:08:22.036Z,35.50
2023-02-03T23:10:54.056Z,25.27
2023-02-03T23:13:30.386Z,33.73
2023-02-03T23:15:59.589Z,30.63
2023-02-03T23:18:26.409Z,24.67
2023-02-03T23:20:58.467Z,36.90
2023-02-03T23:23:25.466Z,33.00
2023-02-03T23:25:52.155Z,34.83
2023-02-03T23:28:18.922Z,23.20
2023-02-03T23:30:45.695Z,33.87
2023-02-03T23:33:14.841Z,37.37
2023-02-03T23:35:47.440Z,29.33
2023-02-03T23:38:15.281Z,30.67
2023-02-03T23:40:44.926Z,44.57
2023-02-03T23:43:11.898Z,32.07
2023-02-03T23:45:38.580Z,45.77
2023-02-03T23:48:05.760Z,27.97
2023-02-03T23:50:32.875Z,31.40
2023-02-03T23:53:04.781Z,30.50
2023-02-03T23:55:31.532Z,33.03
2023-02-03T23:57:58.294Z,41.00
